Kezdőlap
METAR-TAF:

METAR-TAF

Repülőterek :

Pöstyén, Szlovákia

földrajzi szélesség: 48-37-30N, földrajzi hosszúság: 017-49-43E, magasság: 163 m

Jelenlegi meteorológiai megfigyelések

A jelentés 14 perccel ezelõtt készült, 21:30 UTC
Különbözõ irányokból fújó szél 1 kt
Hőmérséklet 17°C
Páratartalom 82%
Légköri nyomás 1021 hPa
Látótávolság 10 km, vagy több

METAR: LZPP 262130Z AUTO VRB01KT 9999 NCD 17/14 Q1021

Idő: 23:44 (21:44 UTC)


TAF: hiányzik

Meteorológiai megfigyelések és előrejelzések több, mint 4000 repülőtéren (METAR és TAF jelentéseket).

A térképen piros és sárga pontok jelzik az elérhető meteorológiai állomásokat.

Mozgassa az egeret a pont fölött, hogy megjelenjen az állomás neve.

Azután kattintson az időjárási megfigyelések és előrejelzések megtekintéséhez.

A térkép megváltoztatása: kattintson a fekete keresztel jelölt zöld gombra ráközelítéshez, a vonallal jelölt zöld gombra távolításhoz, vagy a zöld nyilakra a szomszédos térképek eléréséhez.


METAR-TAF: